createdAt,value
2019-02-26T00:00:28.550Z,9.32
2019-02-26T00:01:29.053Z,9.39
2019-02-26T00:02:28.916Z,9.29
2019-02-26T00:03:30.779Z,9.37
2019-02-26T00:04:30.276Z,9.36
2019-02-26T00:05:30.657Z,9.32
2019-02-26T00:06:30.180Z,9.32
2019-02-26T00:07:32.314Z,9.28
2019-02-26T00:08:29.489Z,9.28
2019-02-26T00:09:30.432Z,9.26
2019-02-26T00:10:31.282Z,9.23
2019-02-26T00:11:30.743Z,9.25
2019-02-26T00:12:29.200Z,9.21
2019-02-26T00:13:27.610Z,9.25
2019-02-26T00:14:28.093Z,9.28
2019-02-26T00:15:24.131Z,9.26
2019-02-26T00:16:24.981Z,9.23
2019-02-26T00:17:26.042Z,9.18
2019-02-26T00:18:26.234Z,9.23
2019-02-26T00:19:23.949Z,9.18
2019-02-26T00:20:23.703Z,9.18
2019-02-26T00:21:30.576Z,9.16
2019-02-26T00:22:24.001Z,9.23
2019-02-26T00:23:28.325Z,9.19
2019-02-26T00:24:24.029Z,9.22
2019-02-26T00:25:25.355Z,9.19
2019-02-26T00:26:25.490Z,9.21
2019-02-26T00:27:28.099Z,9.14
2019-02-26T00:28:26.210Z,9.19
2019-02-26T00:29:29.836Z,9.18
2019-02-26T00:30:24.133Z,9.19
2019-02-26T00:31:30.437Z,9.22
2019-02-26T00:32:24.174Z,9.11
2019-02-26T00:33:30.765Z,9.03
2019-02-26T00:34:24.212Z,9.04
2019-02-26T00:35:27.914Z,9.11
2019-02-26T00:36:24.242Z,9.16
2019-02-26T00:37:30.585Z,9.13
2019-02-26T00:38:24.278Z,9.13
2019-02-26T00:39:29.545Z,9.08
2019-02-26T00:40:25.216Z,9.06
2019-02-26T00:41:31.197Z,9.04
2019-02-26T00:42:31.371Z,9.1
2019-02-26T00:43:32.365Z,9.06
2019-02-26T00:44:30.435Z,9.13
2019-02-26T00:45:32.182Z,9.1
2019-02-26T00:46:28.412Z,9.08
2019-02-26T00:47:24.182Z,9.03
2019-02-26T00:48:24.250Z,8.97
2019-02-26T00:49:30.284Z,8.99
2019-02-26T00:50:24.236Z,9.08
2019-02-26T00:51:29.010Z,9.02
2019-02-26T00:52:24.277Z,9.02
2019-02-26T00:53:30.613Z,8.97
2019-02-26T00:54:31.830Z,8.99
2019-02-26T00:55:34.262Z,9.03
2019-02-26T00:56:29.158Z,8.99
2019-02-26T00:57:27.121Z,8.97
2019-02-26T00:58:24.387Z,9.02
2019-02-26T00:59:24.669Z,8.95
2019-02-26T01:00:28.503Z,9
2019-02-26T01:01:28.170Z,8.85
2019-02-26T01:02:24.449Z,8.89
2019-02-26T01:03:24.991Z,8.89
2019-02-26T01:04:24.487Z,8.99
2019-02-26T01:05:24.763Z,8.88
2019-02-26T01:06:28.979Z,8.85
2019-02-26T01:07:30.202Z,8.94
2019-02-26T01:08:25.087Z,8.84
2019-02-26T01:09:27.669Z,8.88
2019-02-26T01:10:26.186Z,8.76
2019-02-26T01:11:30.209Z,8.79
2019-02-26T01:12:25.143Z,8.73
2019-02-26T01:13:30.457Z,8.79
2019-02-26T01:14:27.481Z,8.74
2019-02-26T01:15:24.944Z,8.84
2019-02-26T01:16:24.703Z,8.74
2019-02-26T01:17:24.977Z,8.76
2019-02-26T01:18:29.172Z,8.73
2019-02-26T01:19:25.012Z,8.74
2019-02-26T01:20:31.965Z,8.7
2019-02-26T01:21:33.438Z,8.76
2019-02-26T01:22:24.804Z,8.74
2019-02-26T01:23:30.925Z,8.69
2019-02-26T01:24:30.355Z,8.74
2019-02-26T01:25:27.234Z,8.7
2019-02-26T01:26:27.279Z,8.66
2019-02-26T01:27:25.151Z,8.7
2019-02-26T01:28:29.475Z,8.73
2019-02-26T01:29:32.196Z,8.64
2019-02-26T01:30:33.228Z,8.67
2019-02-26T01:31:29.921Z,8.7
2019-02-26T01:32:27.580Z,8.66
2019-02-26T01:33:32.049Z,8.7
2019-02-26T01:34:25.275Z,8.66
2019-02-26T01:35:26.145Z,8.64
2019-02-26T01:36:27.908Z,8.64
2019-02-26T01:37:26.076Z,8.55
2019-02-26T01:38:26.667Z,8.58
2019-02-26T01:39:27.877Z,8.67
2019-02-26T01:40:28.064Z,8.61
2019-02-26T01:41:29.814Z,8.74
2019-02-26T01:42:31.650Z,8.49
2019-02-26T01:43:25.176Z,8.63
2019-02-26T01:44:28.004Z,8.64
2019-02-26T01:45:32.300Z,8.69
2019-02-26T01:46:25.241Z,8.58
2019-02-26T01:47:28.719Z,8.6
2019-02-26T01:48:25.526Z,8.53
2019-02-26T01:49:28.849Z,8.53
2019-02-26T01:50:25.303Z,8.6
2019-02-26T01:51:28.922Z,8.48
2019-02-26T01:52:25.852Z,8.55
2019-02-26T01:53:29.575Z,8.52
2019-02-26T01:54:25.884Z,8.56
2019-02-26T01:55:29.350Z,8.52
2019-02-26T01:56:25.664Z,8.48
2019-02-26T01:57:29.515Z,8.58
2019-02-26T01:58:25.959Z,8.44
2019-02-26T01:59:25.507Z,8.49
2019-02-26T02:00:28.100Z,8.46
2019-02-26T02:01:28.413Z,8.49
2019-02-26T02:02:30.845Z,8.48
2019-02-26T02:03:30.182Z,8.49
2019-02-26T02:04:25.544Z,8.48
2019-02-26T02:05:31.439Z,8.51
2019-02-26T02:06:25.596Z,8.45
2019-02-26T02:07:31.103Z,8.38
2019-02-26T02:08:29.017Z,8.49
2019-02-26T02:09:28.140Z,8.42
2019-02-26T02:10:25.905Z,8.42
2019-02-26T02:11:33.940Z,8.37
2019-02-26T02:12:34.374Z,8.37
2019-02-26T02:13:35.651Z,8.44
2019-02-26T02:14:25.978Z,8.48
2019-02-26T02:15:28.164Z,8.36
2019-02-26T02:16:30.877Z,8.41
2019-02-26T02:17:26.290Z,8.34
2019-02-26T02:18:29.956Z,8.37
2019-02-26T02:19:32.619Z,8.38
2019-02-26T02:20:26.540Z,8.38
2019-02-26T02:21:32.882Z,8.45
2019-02-26T02:22:26.120Z,8.34
2019-02-26T02:23:30.321Z,8.37
2019-02-26T02:24:28.826Z,8.34
2019-02-26T02:25:28.928Z,8.36
2019-02-26T02:26:25.940Z,8.33
2019-02-26T02:27:33.177Z,8.38
2019-02-26T02:28:33.641Z,8.36
2019-02-26T02:29:30.835Z,8.42
2019-02-26T02:30:35.390Z,8.33
2019-02-26T02:31:31.085Z,8.31
2019-02-26T02:32:34.414Z,8.31
2019-02-26T02:33:34.904Z,8.36
2019-02-26T02:34:33.616Z,8.34
2019-02-26T02:35:26.607Z,8.34
2019-02-26T02:36:30.275Z,8.3
2019-02-26T02:37:33.769Z,8.3
2019-02-26T02:38:26.412Z,8.34
2019-02-26T02:39:31.708Z,8.33
2019-02-26T02:40:26.694Z,8.28
2019-02-26T02:41:26.452Z,8.28
2019-02-26T02:42:26.455Z,8.31
2019-02-26T02:43:28.277Z,8.33
2019-02-26T02:44:29.672Z,8.28
2019-02-26T02:45:26.527Z,8.34
2019-02-26T02:46:26.279Z,8.34
2019-02-26T02:47:30.701Z,8.33
2019-02-26T02:48:26.858Z,8.27
2019-02-26T02:49:26.591Z,8.33
2019-02-26T02:50:26.610Z,8.28
2019-02-26T02:51:31.037Z,8.24
2019-02-26T02:52:33.016Z,8.31
2019-02-26T02:53:32.379Z,8.33
2019-02-26T02:54:28.479Z,8.3
2019-02-26T02:55:26.434Z,8.26
2019-02-26T02:56:26.453Z,8.27
2019-02-26T02:57:32.416Z,8.27
2019-02-26T02:58:30.461Z,8.28
2019-02-26T02:59:28.248Z,8.18
2019-02-26T03:00:34.445Z,8.3
2019-02-26T03:01:31.156Z,8.3
2019-02-26T03:02:27.892Z,8.23
2019-02-26T03:03:26.835Z,8.23
2019-02-26T03:04:34.652Z,8.26
2019-02-26T03:05:26.866Z,8.28
2019-02-26T03:06:32.475Z,8.24
2019-02-26T03:07:31.673Z,8.27
2019-02-26T03:08:27.512Z,8.24
2019-02-26T03:09:26.960Z,8.18
2019-02-26T03:10:37.239Z,8.18
2019-02-26T03:11:26.970Z,8.18
2019-02-26T03:12:26.990Z,8.19
2019-02-26T03:13:30.252Z,8.23
2019-02-26T03:14:27.281Z,8.27
2019-02-26T03:15:35.279Z,8.18
2019-02-26T03:16:31.626Z,8.19
2019-02-26T03:17:27.074Z,8.2
2019-02-26T03:18:26.850Z,8.18
2019-02-26T03:19:29.478Z,8.18
2019-02-26T03:20:36.980Z,8.15
2019-02-26T03:21:33.136Z,8.15
2019-02-26T03:22:27.164Z,8.16
2019-02-26T03:23:26.927Z,8.16
2019-02-26T03:24:33.875Z,8.18
2019-02-26T03:25:31.651Z,8.2
2019-02-26T03:26:30.199Z,8.1
2019-02-26T03:27:31.096Z,8.15
2019-02-26T03:28:27.277Z,8.13
2019-02-26T03:29:27.022Z,8.19
2019-02-26T03:30:45.125Z,8.16
2019-02-26T03:31:40.493Z,8.18
2019-02-26T03:32:27.089Z,8.13
2019-02-26T03:33:27.643Z,8.1
2019-02-26T03:34:29.915Z,8.16
2019-02-26T03:35:28.581Z,8.12
2019-02-26T03:36:27.153Z,8.15
2019-02-26T03:37:31.786Z,8.05
2019-02-26T03:38:31.244Z,8.06
2019-02-26T03:39:27.203Z,8.08
2019-02-26T03:40:32.931Z,8.09
2019-02-26T03:41:33.315Z,8.18
2019-02-26T03:42:27.266Z,8.05
2019-02-26T03:43:28.617Z,8.1
2019-02-26T03:44:32.130Z,8.12
2019-02-26T03:45:29.328Z,8.09
2019-02-26T03:46:27.943Z,8.12
2019-02-26T03:47:27.617Z,8.15
2019-02-26T03:48:27.619Z,8.1
2019-02-26T03:49:31.020Z,8.1
2019-02-26T03:50:31.141Z,8.15
2019-02-26T03:51:27.430Z,8.12
2019-02-26T03:52:28.932Z,8.15
2019-02-26T03:53:34.310Z,8.09
2019-02-26T03:54:27.467Z,8.12
2019-02-26T03:55:27.741Z,8.09
2019-02-26T03:56:28.004Z,8
2019-02-26T03:57:29.430Z,8.12
2019-02-26T03:58:27.523Z,8.05
2019-02-26T03:59:27.839Z,8.09
2019-02-26T04:00:28.093Z,8.06
2019-02-26T04:01:27.833Z,8.08
2019-02-26T04:02:28.178Z,7.95
2019-02-26T04:03:29.533Z,8.09
2019-02-26T04:04:33.857Z,8.12
2019-02-26T04:05:27.903Z,7.98
2019-02-26T04:06:28.186Z,8.08
2019-02-26T04:07:36.067Z,8.09
2019-02-26T04:08:32.454Z,8.09
2019-02-26T04:09:27.718Z,8.03
2019-02-26T04:10:27.998Z,8.01
2019-02-26T04:11:32.175Z,8
2019-02-26T04:12:28.042Z,7.98
2019-02-26T04:13:27.781Z,8
2019-02-26T04:14:32.907Z,7.98
2019-02-26T04:15:36.211Z,8
2019-02-26T04:16:29.629Z,7.97
2019-02-26T04:17:36.813Z,8.01
2019-02-26T04:18:28.139Z,8.01
2019-02-26T04:19:31.557Z,8.01
2019-02-26T04:20:31.606Z,7.97
2019-02-26T04:21:28.176Z,8
2019-02-26T04:22:30.908Z,7.97
2019-02-26T04:23:28.222Z,8
2019-02-26T04:24:35.913Z,7.95
2019-02-26T04:25:36.404Z,7.95
2019-02-26T04:26:34.977Z,8.01
2019-02-26T04:27:28.219Z,7.97
2019-02-26T04:28:36.993Z,7.95
2019-02-26T04:29:28.349Z,7.95
2019-02-26T04:30:28.092Z,7.95
2019-02-26T04:31:28.354Z,8.01
2019-02-26T04:32:28.369Z,7.95
2019-02-26T04:33:32.645Z,8
2019-02-26T04:34:28.405Z,7.97
2019-02-26T04:35:28.171Z,7.97
2019-02-26T04:36:28.237Z,7.95
2019-02-26T04:37:34.791Z,7.95
2019-02-26T04:38:33.715Z,7.94
2019-02-26T04:39:28.230Z,7.97
2019-02-26T04:40:35.646Z,7.9
2019-02-26T04:41:28.821Z,7.95
2019-02-26T04:42:28.292Z,7.95
2019-02-26T04:43:34.209Z,7.97
2019-02-26T04:44:34.534Z,7.93
2019-02-26T04:45:28.853Z,7.97
2019-02-26T04:46:34.224Z,7.88
2019-02-26T04:47:35.629Z,7.93
2019-02-26T04:48:36.372Z,7.9
2019-02-26T04:49:36.678Z,7.85
2019-02-26T04:50:38.600Z,7.85
2019-02-26T04:51:28.957Z,7.93
2019-02-26T04:52:29.482Z,7.91
2019-02-26T04:53:34.388Z,7.9
2019-02-26T04:54:36.742Z,7.93
2019-02-26T04:55:32.845Z,7.85
2019-02-26T04:56:36.242Z,7.95
2019-02-26T04:57:28.802Z,7.88
2019-02-26T04:58:29.104Z,7.88
2019-02-26T04:59:29.869Z,7.87
2019-02-26T05:00:38.701Z,7.83
2019-02-26T05:01:28.882Z,7.83
2019-02-26T05:02:28.628Z,7.83
2019-02-26T05:03:28.902Z,7.82
2019-02-26T05:04:33.785Z,7.82
2019-02-26T05:05:37.076Z,7.79
2019-02-26T05:06:28.958Z,7.79
2019-02-26T05:07:28.972Z,7.8
2019-02-26T05:08:29.307Z,7.91
2019-02-26T05:09:35.365Z,7.82
2019-02-26T05:10:36.212Z,7.82
2019-02-26T05:11:40.878Z,7.82
2019-02-26T05:12:34.797Z,7.87
2019-02-26T05:13:34.640Z,7.82
2019-02-26T05:14:29.092Z,7.88
2019-02-26T05:15:35.150Z,7.76
2019-02-26T05:16:37.697Z,7.82
2019-02-26T05:17:35.560Z,7.83
2019-02-26T05:18:36.006Z,7.82
2019-02-26T05:19:29.182Z,7.85
2019-02-26T05:20:31.237Z,7.75
2019-02-26T05:21:35.961Z,7.82
2019-02-26T05:22:33.438Z,7.83
2019-02-26T05:23:35.160Z,7.79
2019-02-26T05:24:30.661Z,7.79
2019-02-26T05:25:30.900Z,7.72
2019-02-26T05:26:30.271Z,7.76
2019-02-26T05:27:29.970Z,7.75
2019-02-26T05:28:29.858Z,7.76
2019-02-26T05:29:29.093Z,7.7
2019-02-26T05:30:29.110Z,7.66
2019-02-26T05:31:33.018Z,7.63
2019-02-26T05:32:35.617Z,7.7
2019-02-26T05:33:34.911Z,7.76
2019-02-26T05:34:30.369Z,7.73
2019-02-26T05:35:29.712Z,7.67
2019-02-26T05:36:31.665Z,7.67
2019-02-26T05:37:37.476Z,7.73
2019-02-26T05:38:35.727Z,7.73
2019-02-26T05:39:33.311Z,7.66
2019-02-26T05:40:29.806Z,7.67
2019-02-26T05:41:29.299Z,7.67
2019-02-26T05:42:29.571Z,7.72
2019-02-26T05:43:35.895Z,7.67
2019-02-26T05:44:29.606Z,7.69
2019-02-26T05:45:37.152Z,7.7
2019-02-26T05:46:33.933Z,7.69
2019-02-26T05:47:31.049Z,7.66
2019-02-26T05:48:30.355Z,7.7
2019-02-26T05:49:32.128Z,7.66
2019-02-26T05:50:35.389Z,7.75
2019-02-26T05:51:38.017Z,7.66
2019-02-26T05:52:35.839Z,7.66
2019-02-26T05:53:29.518Z,7.72
2019-02-26T05:54:29.535Z,7.58
2019-02-26T05:55:30.487Z,7.63
2019-02-26T05:56:30.070Z,7.53
2019-02-26T05:57:36.895Z,7.58
2019-02-26T05:58:29.867Z,7.66
2019-02-26T05:59:29.866Z,7.58
2019-02-26T06:00:35.781Z,7.58
2019-02-26T06:01:32.126Z,7.61
2019-02-26T06:02:30.172Z,7.61
2019-02-26T06:03:29.694Z,7.63
2019-02-26T06:04:31.907Z,7.58
2019-02-26T06:05:30.805Z,7.63
2019-02-26T06:06:30.256Z,7.6
2019-02-26T06:07:38.760Z,7.58
2019-02-26T06:08:38.488Z,7.51
2019-02-26T06:09:36.049Z,7.56
2019-02-26T06:10:34.838Z,7.53
2019-02-26T06:11:39.659Z,7.54
2019-02-26T06:12:30.482Z,7.56
2019-02-26T06:13:34.472Z,7.48
2019-02-26T06:14:36.962Z,7.53
2019-02-26T06:15:36.021Z,7.48
2019-02-26T06:16:33.727Z,7.57
2019-02-26T06:17:30.167Z,7.57
2019-02-26T06:18:29.936Z,7.48
2019-02-26T06:19:35.440Z,7.47
2019-02-26T06:20:36.574Z,7.56
2019-02-26T06:21:30.507Z,7.6
2019-02-26T06:22:34.650Z,7.53
2019-02-26T06:23:36.597Z,7.58
2019-02-26T06:24:37.885Z,7.56
2019-02-26T06:25:30.378Z,7.51
2019-02-26T06:26:40.565Z,7.56
2019-02-26T06:27:31.721Z,7.56
2019-02-26T06:28:35.369Z,7.53
2019-02-26T06:29:37.393Z,7.6
2019-02-26T06:30:30.138Z,7.56
2019-02-26T06:31:30.405Z,7.48
2019-02-26T06:32:40.002Z,7.57
2019-02-26T06:33:35.967Z,7.47
2019-02-26T06:34:30.460Z,7.51
2019-02-26T06:35:31.460Z,7.51
2019-02-26T06:36:32.725Z,7.51
2019-02-26T06:37:33.644Z,7.5
2019-02-26T06:38:35.405Z,7.54
2019-02-26T06:39:36.245Z,7.56
2019-02-26T06:40:32.371Z,7.56
2019-02-26T06:41:30.574Z,7.53
2019-02-26T06:42:35.508Z,7.48
2019-02-26T06:43:30.961Z,7.53
2019-02-26T06:44:30.631Z,7.53
2019-02-26T06:45:30.390Z,7.53
2019-02-26T06:46:36.405Z,7.56
2019-02-26T06:47:35.698Z,7.48
2019-02-26T06:48:34.555Z,7.51
2019-02-26T06:49:32.891Z,7.51
2019-02-26T06:50:31.745Z,7.53
2019-02-26T06:51:33.033Z,7.58
2019-02-26T06:52:37.287Z,7.51
2019-02-26T06:53:30.774Z,7.53
2019-02-26T06:54:34.273Z,7.54
2019-02-26T06:55:30.552Z,7.53
2019-02-26T06:56:34.413Z,7.47
2019-02-26T06:57:30.849Z,7.5
2019-02-26T06:58:30.867Z,7.57
2019-02-26T06:59:36.899Z,7.58
2019-02-26T07:00:33.468Z,7.54
2019-02-26T07:01:35.057Z,7.54
2019-02-26T07:02:33.359Z,7.5
2019-02-26T07:03:30.958Z,7.51
2019-02-26T07:04:34.081Z,7.5
2019-02-26T07:05:30.979Z,7.53
2019-02-26T07:06:38.020Z,7.53
2019-02-26T07:07:31.027Z,7.51
2019-02-26T07:08:35.138Z,7.53
2019-02-26T07:09:32.360Z,7.54
2019-02-26T07:10:35.917Z,7.53
2019-02-26T07:11:37.821Z,7.6
2019-02-26T07:12:31.458Z,7.57
2019-02-26T07:13:31.118Z,7.61
2019-02-26T07:14:36.767Z,7.6
2019-02-26T07:15:33.861Z,7.6
2019-02-26T07:16:31.171Z,7.6
2019-02-26T07:17:38.334Z,7.6
2019-02-26T07:18:31.200Z,7.67
2019-02-26T07:19:38.092Z,7.6
2019-02-26T07:20:46.452Z,7.6
2019-02-26T07:21:31.253Z,7.63
2019-02-26T07:22:31.268Z,7.66
2019-02-26T07:23:38.028Z,7.7
2019-02-26T07:24:32.084Z,7.67
2019-02-26T07:25:33.181Z,7.67
2019-02-26T07:26:31.083Z,7.66
2019-02-26T07:27:36.519Z,7.7
2019-02-26T07:28:31.308Z,7.73
2019-02-26T07:29:42.828Z,7.72
2019-02-26T07:30:32.576Z,7.69
2019-02-26T07:31:37.490Z,7.69
2019-02-26T07:32:31.179Z,7.77
2019-02-26T07:33:39.051Z,7.79
2019-02-26T07:34:32.037Z,7.82
2019-02-26T07:35:37.396Z,7.79
2019-02-26T07:36:32.498Z,7.73
2019-02-26T07:37:38.032Z,7.77
2019-02-26T07:38:40.776Z,7.8
2019-02-26T07:39:31.300Z,7.77
2019-02-26T07:40:37.768Z,7.8
2019-02-26T07:41:34.693Z,7.77
2019-02-26T07:42:36.832Z,7.8
2019-02-26T07:43:31.884Z,7.87
2019-02-26T07:44:33.056Z,7.82
2019-02-26T07:45:34.763Z,7.79
2019-02-26T07:46:33.172Z,7.8
2019-02-26T07:47:36.284Z,7.83
2019-02-26T07:48:36.189Z,7.9
2019-02-26T07:49:31.734Z,7.94
2019-02-26T07:50:42.810Z,7.87
2019-02-26T07:51:33.851Z,7.8
2019-02-26T07:52:35.251Z,7.87
2019-02-26T07:53:31.543Z,7.91
2019-02-26T07:54:33.567Z,7.95
2019-02-26T07:55:35.379Z,7.95
2019-02-26T07:56:35.037Z,7.97
2019-02-26T07:57:32.297Z,8.01
2019-02-26T07:58:35.945Z,8.03
2019-02-26T07:59:36.808Z,8.03
2019-02-26T08:00:37.161Z,8.06
2019-02-26T08:01:31.691Z,8.08
2019-02-26T08:02:35.345Z,8.1
2019-02-26T08:03:33.917Z,8.08
2019-02-26T08:04:36.334Z,8.09
2019-02-26T08:05:33.244Z,8.1
2019-02-26T08:06:36.725Z,8.09
2019-02-26T08:07:33.568Z,8.12
2019-02-26T08:08:31.803Z,8.12
2019-02-26T08:09:31.822Z,8.13
2019-02-26T08:10:35.079Z,8.19
2019-02-26T08:11:32.109Z,8.16
2019-02-26T08:12:35.531Z,8.12
2019-02-26T08:13:38.207Z,8.16
2019-02-26T08:14:31.924Z,8.23
2019-02-26T08:15:37.505Z,8.24
2019-02-26T08:16:34.910Z,8.27
2019-02-26T08:17:32.474Z,8.33
2019-02-26T08:18:32.248Z,8.26
2019-02-26T08:19:39.256Z,8.34
2019-02-26T08:20:37.562Z,8.31
2019-02-26T08:21:34.190Z,8.36
2019-02-26T08:22:38.647Z,8.36
2019-02-26T08:23:32.317Z,8.34
2019-02-26T08:24:32.078Z,8.36
2019-02-26T08:25:32.612Z,8.38
2019-02-26T08:26:34.022Z,8.41
2019-02-26T08:27:38.016Z,8.37
2019-02-26T08:28:32.662Z,8.33
2019-02-26T08:29:38.556Z,8.44
2019-02-26T08:30:32.444Z,8.45
2019-02-26T08:31:32.590Z,8.45
2019-02-26T08:32:34.382Z,8.49
2019-02-26T08:33:32.492Z,8.49
2019-02-26T08:34:32.251Z,8.49
2019-02-26T08:35:32.530Z,8.49
2019-02-26T08:36:32.807Z,8.46
2019-02-26T08:37:32.562Z,8.46
2019-02-26T08:38:34.756Z,8.61
2019-02-26T08:39:32.596Z,8.6
2019-02-26T08:40:32.615Z,8.63
2019-02-26T08:41:32.635Z,8.61
2019-02-26T08:42:32.403Z,8.6
2019-02-26T08:43:32.669Z,8.6
2019-02-26T08:44:32.817Z,8.63
2019-02-26T08:45:33.373Z,8.61
2019-02-26T08:46:32.721Z,8.63
2019-02-26T08:47:32.742Z,8.56
2019-02-26T08:48:33.025Z,8.66
2019-02-26T08:49:32.773Z,8.55
2019-02-26T08:50:38.969Z,8.6
2019-02-26T08:51:33.073Z,8.64
2019-02-26T08:52:34.305Z,8.64
2019-02-26T08:53:34.359Z,8.52
2019-02-26T08:54:38.058Z,8.58
2019-02-26T08:55:32.884Z,8.58
2019-02-26T08:56:40.943Z,8.64
2019-02-26T08:57:32.916Z,8.64
2019-02-26T08:58:32.933Z,8.64
2019-02-26T08:59:33.217Z,8.63
2019-02-26T09:00:34.299Z,8.69
2019-02-26T09:01:32.982Z,8.73
2019-02-26T09:02:33.003Z,8.79
2019-02-26T09:03:42.810Z,8.71
2019-02-26T09:04:35.002Z,8.69
2019-02-26T09:05:37.058Z,8.69
2019-02-26T09:06:32.820Z,8.76
2019-02-26T09:07:32.834Z,8.79
2019-02-26T09:08:40.426Z,8.73
2019-02-26T09:09:35.556Z,8.7
2019-02-26T09:10:33.146Z,8.79
2019-02-26T09:11:38.774Z,8.71
2019-02-26T09:12:33.446Z,8.85
2019-02-26T09:13:36.834Z,8.78
2019-02-26T09:14:40.863Z,8.78
2019-02-26T09:15:38.370Z,8.81
2019-02-26T09:16:35.424Z,8.82
2019-02-26T09:17:40.382Z,8.78
2019-02-26T09:18:40.602Z,8.87
2019-02-26T09:19:38.122Z,8.82
2019-02-26T09:20:33.327Z,8.81
2019-02-26T09:21:34.619Z,8.87
2019-02-26T09:22:33.115Z,8.84
2019-02-26T09:23:35.816Z,8.88
2019-02-26T09:24:33.140Z,8.89
2019-02-26T09:25:36.498Z,8.92
2019-02-26T09:26:33.437Z,8.94
2019-02-26T09:27:42.884Z,8.91
2019-02-26T09:28:34.569Z,8.94
2019-02-26T09:29:34.263Z,9
2019-02-26T09:30:40.807Z,8.94
2019-02-26T09:31:33.783Z,8.97
2019-02-26T09:32:37.839Z,8.91
2019-02-26T09:33:42.703Z,8.94
2019-02-26T09:34:39.862Z,9.03
2019-02-26T09:35:36.154Z,9.02
2019-02-26T09:36:34.039Z,9.04
2019-02-26T09:37:33.371Z,9.04
2019-02-26T09:38:33.906Z,8.99
2019-02-26T09:39:39.046Z,8.91
2019-02-26T09:40:38.217Z,9
2019-02-26T09:41:38.331Z,8.95
2019-02-26T09:42:36.232Z,8.99
2019-02-26T09:43:33.478Z,9
2019-02-26T09:44:38.158Z,9.04
2019-02-26T09:45:34.549Z,9.02
2019-02-26T09:46:41.189Z,9.11
2019-02-26T09:47:38.084Z,9.08
2019-02-26T09:48:34.048Z,9.08
2019-02-26T09:49:38.078Z,9.06
2019-02-26T09:50:33.861Z,9.06
2019-02-26T09:51:39.925Z,9.1
2019-02-26T09:52:36.429Z,9.1
2019-02-26T09:53:33.917Z,9.06
2019-02-26T09:54:37.580Z,9.1
2019-02-26T09:55:33.698Z,9.08
2019-02-26T09:56:34.226Z,9.06
2019-02-26T09:57:33.729Z,9.06
2019-02-26T09:58:34.013Z,9.22
2019-02-26T09:59:39.117Z,9.19
2019-02-26T10:00:34.056Z,9.1
2019-02-26T10:01:40.181Z,9.19
2019-02-26T10:02:34.258Z,9.13
2019-02-26T10:03:41.416Z,9.19
2019-02-26T10:04:34.123Z,9.19
2019-02-26T10:05:34.132Z,9.21
2019-02-26T10:06:34.895Z,9.25
2019-02-26T10:07:39.000Z,9.19
2019-02-26T10:08:35.538Z,9.25
2019-02-26T10:09:38.076Z,9.14
2019-02-26T10:10:41.256Z,9.22
2019-02-26T10:11:33.982Z,9.14
2019-02-26T10:12:39.374Z,9.14
2019-02-26T10:13:34.017Z,9.16
2019-02-26T10:14:39.044Z,9.18
2019-02-26T10:15:37.793Z,9.25
2019-02-26T10:16:37.256Z,9.23
2019-02-26T10:17:39.652Z,9.28
2019-02-26T10:18:35.321Z,9.28
2019-02-26T10:19:40.976Z,9.22
2019-02-26T10:20:36.467Z,9.34
2019-02-26T10:21:40.496Z,9.25
2019-02-26T10:22:42.102Z,9.28
2019-02-26T10:23:38.040Z,9.32
2019-02-26T10:24:40.286Z,9.34
2019-02-26T10:25:41.259Z,9.34
2019-02-26T10:26:40.952Z,9.31
2019-02-26T10:27:41.155Z,9.34
2019-02-26T10:28:39.594Z,9.39
2019-02-26T10:29:41.905Z,9.4
2019-02-26T10:30:43.646Z,9.37
2019-02-26T10:31:34.343Z,9.39
2019-02-26T10:32:35.332Z,9.37
2019-02-26T10:33:41.041Z,9.43
2019-02-26T10:34:34.762Z,9.4
2019-02-26T10:35:41.961Z,9.47
2019-02-26T10:36:46.333Z,9.4
2019-02-26T10:37:41.647Z,9.44
2019-02-26T10:38:40.476Z,9.43
2019-02-26T10:39:36.764Z,9.43
2019-02-26T10:40:57.195Z,9.5
2019-02-26T10:41:39.309Z,9.43
2019-02-26T10:42:46.050Z,9.51
2019-02-26T10:43:34.564Z,9.47
2019-02-26T10:44:34.902Z,9.5
2019-02-26T10:45:41.500Z,9.41
2019-02-26T10:46:41.862Z,9.44
2019-02-26T10:47:37.552Z,9.43
2019-02-26T10:48:34.660Z,9.44
2019-02-26T10:49:34.675Z,9.44
2019-02-26T10:50:42.496Z,9.5
2019-02-26T10:51:34.711Z,9.47
2019-02-26T10:52:35.244Z,9.5
2019-02-26T10:53:35.261Z,9.55
2019-02-26T10:54:44.716Z,9.51
2019-02-26T10:55:44.374Z,9.44
2019-02-26T10:56:44.711Z,9.54
2019-02-26T10:57:38.693Z,9.48
2019-02-26T10:58:34.838Z,9.44
2019-02-26T10:59:35.135Z,9.59
2019-02-26T11:00:40.173Z,9.51
2019-02-26T11:01:38.246Z,9.58
2019-02-26T11:02:35.208Z,9.54
2019-02-26T11:03:44.348Z,9.54
2019-02-26T11:04:44.516Z,9.56
2019-02-26T11:05:37.184Z,9.59
2019-02-26T11:06:43.814Z,9.59
2019-02-26T11:07:40.426Z,9.58
2019-02-26T11:08:39.339Z,9.59
2019-02-26T11:09:36.593Z,9.56
2019-02-26T11:10:39.257Z,9.55
2019-02-26T11:11:40.419Z,9.64
2019-02-26T11:12:38.846Z,9.54
2019-02-26T11:13:37.263Z,9.55
2019-02-26T11:14:41.873Z,9.66
2019-02-26T11:15:38.757Z,9.69
2019-02-26T11:16:39.225Z,9.69
2019-02-26T11:17:36.241Z,9.66
2019-02-26T11:18:39.795Z,9.72
2019-02-26T11:19:43.983Z,9.74
2019-02-26T11:20:38.862Z,9.72
2019-02-26T11:21:35.260Z,9.64
2019-02-26T11:22:35.275Z,9.68
2019-02-26T11:23:41.522Z,9.69
2019-02-26T11:24:38.458Z,9.66
2019-02-26T11:25:36.966Z,9.77
2019-02-26T11:26:43.708Z,9.68
2019-02-26T11:27:40.747Z,9.74
2019-02-26T11:28:43.609Z,9.73
2019-02-26T11:29:43.054Z,9.66
2019-02-26T11:30:36.850Z,9.66
2019-02-26T11:31:36.448Z,9.69
2019-02-26T11:32:44.225Z,9.68
2019-02-26T11:33:35.735Z,9.82
2019-02-26T11:34:40.715Z,9.77
2019-02-26T11:35:35.513Z,9.74
2019-02-26T11:36:43.178Z,9.76
2019-02-26T11:37:36.697Z,9.8
2019-02-26T11:38:40.103Z,9.86
2019-02-26T11:39:35.843Z,9.76
2019-02-26T11:40:35.890Z,9.8
2019-02-26T11:41:38.571Z,9.77
2019-02-26T11:42:35.901Z,9.76
2019-02-26T11:43:36.190Z,9.74
2019-02-26T11:44:36.191Z,9.82
2019-02-26T11:45:41.952Z,9.89
2019-02-26T11:46:38.697Z,9.84
2019-02-26T11:47:43.670Z,9.91
2019-02-26T11:48:37.880Z,9.83
2019-02-26T11:49:39.420Z,9.91
2019-02-26T11:50:36.053Z,9.86
2019-02-26T11:51:44.562Z,9.87
2019-02-26T11:52:39.082Z,9.91
2019-02-26T11:53:36.100Z,9.83
2019-02-26T11:54:44.194Z,9.89
2019-02-26T11:55:39.705Z,9.97
2019-02-26T11:56:38.356Z,9.98
2019-02-26T11:57:43.089Z,9.89
2019-02-26T11:58:36.453Z,9.97
2019-02-26T11:59:42.838Z,9.97
2019-02-26T12:00:45.385Z,9.99
2019-02-26T12:01:41.982Z,9.94
2019-02-26T12:02:43.514Z,10.02
2019-02-26T12:03:43.797Z,9.98
2019-02-26T12:04:36.303Z,10.01
2019-02-26T12:05:43.407Z,10.07
2019-02-26T12:06:36.342Z,10.02
2019-02-26T12:07:39.204Z,10.09
2019-02-26T12:08:37.185Z,10.15
2019-02-26T12:09:43.266Z,10.1
2019-02-26T12:10:42.379Z,10.04
2019-02-26T12:11:36.183Z,10.07
2019-02-26T12:12:40.441Z,10.2
2019-02-26T12:13:36.475Z,10.15
2019-02-26T12:14:41.003Z,10.12
2019-02-26T12:15:43.652Z,10.2
2019-02-26T12:16:36.272Z,10.19
2019-02-26T12:17:36.549Z,10.15
2019-02-26T12:18:41.574Z,10.23
2019-02-26T12:19:39.766Z,10.31
2019-02-26T12:20:40.420Z,10.19
2019-02-26T12:21:39.518Z,10.26
2019-02-26T12:22:36.642Z,10.25
2019-02-26T12:23:42.108Z,10.31
2019-02-26T12:24:38.639Z,10.26
2019-02-26T12:25:36.436Z,10.28
2019-02-26T12:26:36.456Z,10.37
2019-02-26T12:27:40.848Z,10.37
2019-02-26T12:28:42.785Z,10.38
2019-02-26T12:29:36.515Z,10.41
2019-02-26T12:30:44.666Z,10.42
2019-02-26T12:31:41.457Z,10.48
2019-02-26T12:32:36.569Z,10.48
2019-02-26T12:33:37.006Z,10.42
2019-02-26T12:34:38.974Z,10.49
2019-02-26T12:35:40.706Z,10.49
2019-02-26T12:36:38.237Z,10.54
2019-02-26T12:37:36.664Z,10.51
2019-02-26T12:38:41.256Z,10.59
2019-02-26T12:39:36.701Z,10.53
2019-02-26T12:40:43.397Z,10.59
2019-02-26T12:41:45.201Z,10.61
2019-02-26T12:42:37.019Z,10.59
2019-02-26T12:43:43.891Z,10.61
2019-02-26T12:44:45.374Z,10.63
2019-02-26T12:45:43.156Z,10.71
2019-02-26T12:46:38.160Z,10.74
2019-02-26T12:47:39.790Z,10.81
2019-02-26T12:48:47.613Z,10.76
2019-02-26T12:49:45.153Z,10.78
2019-02-26T12:50:43.040Z,10.79
2019-02-26T12:51:40.099Z,10.82
2019-02-26T12:52:37.057Z,10.78
2019-02-26T12:53:43.970Z,10.86
2019-02-26T12:56:39.847Z,10.93
2019-02-26T12:56:54.887Z,10.97
2019-02-26T12:57:59.355Z,10.93
2019-02-26T12:58:56.718Z,10.94
2019-02-26T12:59:49.183Z,10.94
2019-02-26T13:00:49.211Z,11.07
2019-02-26T13:01:54.287Z,11.07
2019-02-26T13:02:54.631Z,11.1
2019-02-26T13:03:57.515Z,11.15
2019-02-26T13:04:53.978Z,11.11
2019-02-26T13:05:54.270Z,11.18
2019-02-26T13:06:54.514Z,11.17
2019-02-26T13:07:49.339Z,11.14
2019-02-26T13:08:53.607Z,11.25
2019-02-26T13:10:03.658Z,11.27
2019-02-26T13:11:00.359Z,11.36
2019-02-26T13:12:05.922Z,11.32
2019-02-26T13:13:03.773Z,11.32
2019-02-26T13:13:55.825Z,11.44
2019-02-26T13:15:03.000Z,11.43
2019-02-26T13:15:49.749Z,11.41
2019-02-26T13:16:56.953Z,11.5
2019-02-26T13:17:56.895Z,11.52
2019-02-26T13:18:57.852Z,11.51
2019-02-26T13:19:54.598Z,11.52
2019-02-26T13:20:59.267Z,11.59